Time;durP1;ratioP1;P1;durP2;ratioP2;P2;SDS_P1;SDS_P2;PMS_P1;PMS_P2;Temp;Humidity;BMP_temperature;BMP_pressure;BME280_temperature;BME280_humidity;BME280_pressure;Samples;Min_cycle;Max_cycle;Signal;HPM_P1;HPM_P2
2022/02/17 00:00:29;;;;;;;;;;;;;;;;;;5067655;28;20711;-67
2022/02/17 00:02:55;;;;;;;;;;;;;;;;;;5073941;28;19981;-68
2022/02/17 00:05:21;;;;;;;;;;;;;;;;;;5070700;28;19908;-67
2022/02/17 00:07:47;;;;;;;;;;;;;;;;;;5071039;28;19916;-68
2022/02/17 00:10:13;;;;;;;;;;;;;;;;;;5071019;28;20328;-68
2022/02/17 00:12:39;;;;;;;;;;;;;;;;;;5067042;28;19912;-68
2022/02/17 00:15:05;;;;;;;;;;;;;;;;;;5073381;28;19974;-68
2022/02/17 00:17:30;;;;;;;;;;;;;;;;;;5071450;28;19912;-68
2022/02/17 00:19:56;;;;;;;;;;;;;;;;;;5070719;28;20220;-68
2022/02/17 00:22:22;;;;;;;;;;;;;;;;;;5072423;28;20113;-69
2022/02/17 00:24:48;;;;;;;;;;;;;;;;;;5068660;28;20294;-68
2022/02/17 00:27:14;;;;;;;;;;;;;;;;;;5067946;28;19911;-69
2022/02/17 00:29:40;;;;;;;;;;;;;;;;;;5072005;28;19904;-68
2022/02/17 00:32:06;;;;;;;;;;;;;;;;;;5070989;28;20373;-68
2022/02/17 00:34:32;;;;;;;;;;;;;;;;;;5074316;28;20386;-69
2022/02/17 00:36:58;;;;;;;;;;;;;;;;;;5073378;28;20030;-68
2022/02/17 00:39:24;;;;;;;;;;;;;;;;;;5072744;28;20038;-68
2022/02/17 00:41:50;;;;;;;;;;;;;;;;;;5076954;28;20004;-68
2022/02/17 00:44:16;;;;;;;;;;;;;;;;;;5074605;28;19989;-69
2022/02/17 00:46:41;;;;;;;;;;;;;;;;;;5074313;28;19923;-68
2022/02/17 00:49:07;;;;;;;;;;;;;;;;;;5074928;28;19914;-69
2022/02/17 00:51:34;;;;;;;;;;;;;;;;;;5069549;28;20279;-68
2022/02/17 00:54:00;;;;;;;;;;;;;;;;;;5077818;28;19959;-69
2022/02/17 00:56:26;;;;;;;;;;;;;;;;;;5073876;28;20451;-68
2022/02/17 00:58:52;;;;;;;;;;;;;;;;;;5074401;28;19909;-68
2022/02/17 01:01:18;;;;;;;;;;;;;;;;;;5074105;28;19907;-68
2022/02/17 01:03:44;;;;;;;;;;;;;;;;;;5071579;28;19923;-68
2022/02/17 01:06:10;;;;;;;;;;;;;;;;;;5075063;28;19912;-68
2022/02/17 01:08:36;;;;;;;;;;;;;;;;;;5075127;28;19904;-68
2022/02/17 01:11:02;;;;;;;;;;;;;;;;;;5073914;28;20003;-68
2022/02/17 01:13:27;;;;;;;;;;;;;;;;;;5074059;28;20389;-68
2022/02/17 01:15:53;;;;;;;;;;;;;;;;;;5072275;28;19920;-69
2022/02/17 01:18:19;;;;;;;;;;;;;;;;;;5073165;28;19944;-69
2022/02/17 01:20:46;;;;;;;;;;;;;;;;;;5075725;28;19904;-68
2022/02/17 01:23:12;;;;;;;;;;;;;;;;;;5074022;28;19908;-69
2022/02/17 01:25:38;;;;;;;;;;;;;;;;;;5073176;28;19985;-69
2022/02/17 01:28:04;;;;;;;;;;;;;;;;;;5071130;28;19908;-68
2022/02/17 01:30:30;;;;;;;;;;;;;;;;;;5069688;28;19992;-68
2022/02/17 01:32:56;;;;;;;;;;;;;;;;;;5077163;28;19911;-68
2022/02/17 01:35:22;;;;;;;;;;;;;;;;;;5073783;28;20287;-69
2022/02/17 01:37:47;;;;;;;;;;;;;;;;;;5073873;28;20366;-68
2022/02/17 01:40:13;;;;;;;;;;;;;;;;;;5072942;28;20003;-69
2022/02/17 01:42:39;;;;;;;;;;;;;;;;;;5068925;28;19913;-68
2022/02/17 01:45:05;;;;;;;;;;;;;;;;;;5074186;28;19912;-68
2022/02/17 01:47:31;;;;;;;;;;;;;;;;;;5074146;28;20268;-68
2022/02/17 01:49:57;;;;;;;;;;;;;;;;;;5073198;28;20311;-69
2022/02/17 01:52:23;;;;;;;;;;;;;;;;;;5073538;28;19919;-69
2022/02/17 01:54:49;;;;;;;;;;;;;;;;;;5070421;28;20433;-68
2022/02/17 01:57:15;;;;;;;;;;;;;;;;;;5073528;28;19919;-68
2022/02/17 01:59:40;;;;;;;;;;;;;;;;;;5074197;28;19912;-68
2022/02/17 02:02:06;;;;;;;;;;;;;;;;;;5073186;28;19970;-69
2022/02/17 02:04:32;;;;;;;;;;;;;;;;;;5073227;28;19991;-69
2022/02/17 02:06:58;;;;;;;;;;;;;;;;;;5072039;28;19911;-68
2022/02/17 02:09:24;;;;;;;;;;;;;;;;;;5070108;28;20345;-69
2022/02/17 02:11:50;;;;;;;;;;;;;;;;;;5086348;28;19916;-68
2022/02/17 02:14:16;;;;;;;;;;;;;;;;;;5073039;28;20346;-68
2022/02/17 02:16:42;;;;;;;;;;;;;;;;;;5072394;28;19927;-68
2022/02/17 02:19:07;;;;;;;;;;;;;;;;;;5073218;28;20339;-68
2022/02/17 02:21:33;;;;;;;;;;;;;;;;;;5068442;28;20048;-69
2022/02/17 02:23:59;;;;;;;;;;;;;;;;;;5076427;28;19962;-68
2022/02/17 02:26:27;;;;;;;;;;;;;;;;;;5072589;28;20007;-69
2022/02/17 02:28:53;;;;;;;;;;;;;;;;;;5069610;28;19908;-68
2022/02/17 02:31:19;;;;;;;;;;;;;;;;;;5072558;28;19927;-68
2022/02/17 02:33:45;;;;;;;;;;;;;;;;;;5069235;28;19956;-68
2022/02/17 02:36:11;;;;;;;;;;;;;;;;;;5073049;28;19915;-68
2022/02/17 02:38:37;;;;;;;;;;;;;;;;;;5073489;28;20127;-68
2022/02/17 02:41:03;;;;;;;;;;;;;;;;;;5072516;28;20307;-68
2022/02/17 02:43:29;;;;;;;;;;;;;;;;;;5072627;28;19918;-68
2022/02/17 02:45:54;;;;;;;;;;;;;;;;;;5070432;28;19908;-68
2022/02/17 02:48:20;;;;;;;;;;;;;;;;;;5071185;28;19958;-68
2022/02/17 02:50:46;;;;;;;;;;;;;;;;;;5073994;28;19919;-69
2022/02/17 02:53:14;;;;;;;;;;;;;;;;;;5072603;28;20444;-68
2022/02/17 02:55:40;;;;;;;;;;;;;;;;;;5071670;28;19909;-69
2022/02/17 02:58:06;;;;;;;;;;;;;;;;;;5071881;28;19930;-69
2022/02/17 03:00:32;;;;;;;;;;;;;;;;;;5067786;28;20247;-68
2022/02/17 03:02:58;;;;;;;;;;;;;;;;;;5075081;28;19917;-69
2022/02/17 03:05:24;;;;;;;;;;;;;;;;;;5072126;28;19912;-68
2022/02/17 03:07:52;;;;;;;;;;;;;;;;;;5071956;28;19912;-68
2022/02/17 03:10:18;;;;;;;;;;;;;;;;;;5071708;28;20386;-68
2022/02/17 03:12:44;;;;;;;;;;;;;;;;;;5068765;28;19913;-68
2022/02/17 03:15:10;;;;;;;;;;;;;;;;;;5072751;28;19911;-68
2022/02/17 03:17:36;;;;;;;;;;;;;;;;;;5072672;28;19935;-68
2022/02/17 03:20:07;;;;;;;;;;;;;;;;;;5071747;28;19909;-68
2022/02/17 03:22:33;;;;;;;;;;;;;;;;;;5071517;28;19908;-68
2022/02/17 03:24:59;;;;;;;;;;;;;;;;;;5070672;28;19930;-67
2022/02/17 03:27:25;;;;;;;;;;;;;;;;;;5066199;28;19908;-69
2022/02/17 03:29:51;;;;;;;;;;;;;;;;;;5074031;28;20220;-68
2022/02/17 03:32:16;;;;;;;;;;;;;;;;;;5071623;28;20003;-67
2022/02/17 03:34:42;;;;;;;;;;;;;;;;;;5071361;28;19908;-68
2022/02/17 03:37:08;;;;;;;;;;;;;;;;;;5071148;28;20420;-68
2022/02/17 03:39:34;;;;;;;;;;;;;;;;;;5067232;28;19916;-68
2022/02/17 03:42:00;;;;;;;;;;;;;;;;;;5074474;28;19951;-68
2022/02/17 03:44:26;;;;;;;;;;;;;;;;;;5071518;28;19993;-68
2022/02/17 03:46:52;;;;;;;;;;;;;;;;;;5070923;28;20363;-68
2022/02/17 03:49:18;;;;;;;;;;;;;;;;;;5071216;28;19915;-68
2022/02/17 03:51:44;;;;;;;;;;;;;;;;;;5067966;28;20289;-68
2022/02/17 03:54:10;;;;;;;;;;;;;;;;;;5072484;28;19908;-68
2022/02/17 03:56:35;;;;;;;;;;;;;;;;;;5072119;28;19904;-68
2022/02/17 03:59:01;;;;;;;;;;;;;;;;;;5071147;28;19908;-68
2022/02/17 04:01:27;;;;;;;;;;;;;;;;;;5070866;28;19908;-68
2022/02/17 04:03:53;;;;;;;;;;;;;;;;;;5069296;28;19916;-68
2022/02/17 04:06:19;;;;;;;;;;;;;;;;;;5070146;28;20516;-68
2022/02/17 04:08:45;;;;;;;;;;;;;;;;;;5071605;28;19908;-68
2022/02/17 04:11:11;;;;;;;;;;;;;;;;;;5071249;28;20335;-68
2022/02/17 04:13:37;;;;;;;;;;;;;;;;;;5070774;28;19951;-68
2022/02/17 04:16:03;;;;;;;;;;;;;;;;;;5070983;28;20355;-69
2022/02/17 04:18:28;;;;;;;;;;;;;;;;;;5066984;28;19913;-69
2022/02/17 04:20:55;;;;;;;;;;;;;;;;;;5073785;28;19904;-68
2022/02/17 04:23:20;;;;;;;;;;;;;;;;;;5070506;28;20091;-68
2022/02/17 04:25:46;;;;;;;;;;;;;;;;;;5066691;28;19908;-68
2022/02/17 04:28:12;;;;;;;;;;;;;;;;;;5063476;28;19992;-68
2022/02/17 04:30:38;;;;;;;;;;;;;;;;;;5068988;28;19920;-67
2022/02/17 04:33:04;;;;;;;;;;;;;;;;;;5068447;28;20351;-67
2022/02/17 04:35:30;;;;;;;;;;;;;;;;;;5080018;28;20037;-68
2022/02/17 04:37:56;;;;;;;;;;;;;;;;;;5066829;28;19916;-67
2022/02/17 04:42:18;;;;;;;;;;;;;;;;;;5066080;28;20274;-68
2022/02/17 04:43:07;;;;;;;;;;;;;;;;;;5063402;28;20395;-66
2022/02/17 04:45:33;;;;;;;;;;;;;;;;;;5069872;28;19940;-67
2022/02/17 04:47:59;;;;;;;;;;;;;;;;;;5069765;28;19908;-68
2022/02/17 04:50:25;;;;;;;;;;;;;;;;;;5062357;28;19916;-67
2022/02/17 04:52:51;;;;;;;;;;;;;;;;;;5064694;28;20517;-67
2022/02/17 04:55:17;;;;;;;;;;;;;;;;;;5059383;28;19908;-68
2022/02/17 04:57:43;;;;;;;;;;;;;;;;;;5060016;28;20386;-70
2022/02/17 05:00:09;;;;;;;;;;;;;;;;;;5063619;28;19977;-70
2022/02/17 05:02:36;;;;;;;;;;;;;;;;;;5067985;28;19920;-69
2022/02/17 05:05:02;;;;;;;;;;;;;;;;;;5067080;28;20889;-70
2022/02/17 05:07:28;;;;;;;;;;;;;;;;;;5068306;28;19908;-69
2022/02/17 05:09:54;;;;;;;;;;;;;;;;;;5067516;28;19916;-67
2022/02/17 05:12:20;;;;;;;;;;;;;;;;;;5067583;28;20007;-68
2022/02/17 05:14:45;;;;;;;;;;;;;;;;;;5067216;28;19912;-68
2022/02/17 05:17:11;;;;;;;;;;;;;;;;;;5067189;28;20000;-68
2022/02/17 05:19:37;;;;;;;;;;;;;;;;;;5067758;28;20054;-68
2022/02/17 05:22:03;;;;;;;;;;;;;;;;;;5069253;28;19912;-68
2022/02/17 05:24:29;;;;;;;;;;;;;;;;;;5071003;28;19916;-67
2022/02/17 05:26:55;;;;;;;;;;;;;;;;;;5070931;28;19970;-68
2022/02/17 05:29:21;;;;;;;;;;;;;;;;;;5070818;28;19908;-68
2022/02/17 05:31:47;;;;;;;;;;;;;;;;;;5069117;28;19943;-68
2022/02/17 05:34:13;;;;;;;;;;;;;;;;;;5071155;28;19931;-68
2022/02/17 05:36:40;;;;;;;;;;;;;;;;;;5069759;28;20235;-67
2022/02/17 05:39:06;;;;;;;;;;;;;;;;;;5068411;28;19909;-67
2022/02/17 05:41:32;;;;;;;;;;;;;;;;;;5067453;28;19915;-67
2022/02/17 05:43:58;;;;;;;;;;;;;;;;;;5071577;28;19940;-67
2022/02/17 05:46:24;;;;;;;;;;;;;;;;;;5066523;28;20343;-67
2022/02/17 05:48:50;;;;;;;;;;;;;;;;;;5068969;28;19928;-68
2022/02/17 05:51:17;;;;;;;;;;;;;;;;;;5073309;28;20252;-67
2022/02/17 05:53:43;;;;;;;;;;;;;;;;;;5070226;28;19913;-70
2022/02/17 05:56:09;;;;;;;;;;;;;;;;;;5075006;28;19950;-69
2022/02/17 05:58:35;;;;;;;;;;;;;;;;;;5070639;28;19947;-70
2022/02/17 06:01:01;;;;;;;;;;;;;;;;;;5066048;28;19913;-70
2022/02/17 06:03:27;;;;;;;;;;;;;;;;;;5067323;28;19925;-70
2022/02/17 06:05:52;;;;;;;;;;;;;;;;;;5067429;28;19904;-69
2022/02/17 06:08:19;;;;;;;;;;;;;;;;;;5067293;28;19999;-69
2022/02/17 06:10:45;;;;;;;;;;;;;;;;;;5066799;28;20326;-69
2022/02/17 06:13:11;;;;;;;;;;;;;;;;;;5065172;28;19912;-69
2022/02/17 06:15:37;;;;;;;;;;;;;;;;;;5064257;28;19923;-69
2022/02/17 06:18:03;;;;;;;;;;;;;;;;;;5063833;28;19916;-71
2022/02/17 06:20:29;;;;;;;;;;;;;;;;;;5066648;28;20374;-69
2022/02/17 06:22:55;;;;;;;;;;;;;;;;;;5066605;28;19927;-69
2022/02/17 06:25:21;;;;;;;;;;;;;;;;;;5067412;28;19913;-70
2022/02/17 06:27:46;;;;;;;;;;;;;;;;;;5063270;28;19970;-70
2022/02/17 06:30:12;;;;;;;;;;;;;;;;;;5062231;28;19904;-70
2022/02/17 06:32:38;;;;;;;;;;;;;;;;;;5066421;28;19958;-70
2022/02/17 06:35:04;;;;;;;;;;;;;;;;;;5067523;28;20282;-69
2022/02/17 06:37:30;;;;;;;;;;;;;;;;;;5067499;28;19964;-69
2022/02/17 06:39:56;;;;;;;;;;;;;;;;;;5063895;28;20373;-70
2022/02/17 06:42:22;;;;;;;;;;;;;;;;;;5063594;28;19948;-69
2022/02/17 06:44:48;;;;;;;;;;;;;;;;;;5066971;28;19916;-65
2022/02/17 06:47:14;;;;;;;;;;;;;;;;;;5067881;28;20252;-66
2022/02/17 06:49:40;;;;;;;;;;;;;;;;;;5068082;28;19915;-64
2022/02/17 06:52:06;;;;;;;;;;;;;;;;;;5062498;28;19920;-65
2022/02/17 06:54:32;;;;;;;;;;;;;;;;;;5065397;28;20403;-65
2022/02/17 06:56:58;;;;;;;;;;;;;;;;;;5067255;28;19919;-65
2022/02/17 06:59:24;;;;;;;;;;;;;;;;;;5068040;28;19960;-65
2022/02/17 07:01:49;;;;;;;;;;;;;;;;;;5068109;28;20295;-65
2022/02/17 07:04:15;;;;;;;;;;;;;;;;;;5065056;28;19915;-66
2022/02/17 07:06:42;;;;;;;;;;;;;;;;;;5065009;28;19908;-65
2022/02/17 07:09:08;;;;;;;;;;;;;;;;;;5067515;28;19943;-65
2022/02/17 07:11:34;;;;;;;;;;;;;;;;;;5066050;28;20009;-65
2022/02/17 07:14:00;;;;;;;;;;;;;;;;;;5068157;28;20489;-66
2022/02/17 07:16:26;;;;;;;;;;;;;;;;;;5072054;28;20333;-65
2022/02/17 07:18:52;;;;;;;;;;;;;;;;;;5070169;28;19909;-65
2022/02/17 07:21:18;;;;;;;;;;;;;;;;;;5071031;28;19908;-65
2022/02/17 07:23:44;;;;;;;;;;;;;;;;;;5073216;28;20407;-65
2022/02/17 07:26:11;;;;;;;;;;;;;;;;;;5071743;28;19912;-65
2022/02/17 07:28:37;;;;;;;;;;;;;;;;;;5068835;28;19915;-64
2022/02/17 07:31:03;;;;;;;;;;;;;;;;;;5070956;28;19916;-65
2022/02/17 07:33:29;;;;;;;;;;;;;;;;;;5068850;28;20310;-64
2022/02/17 07:35:55;;;;;;;;;;;;;;;;;;5069503;28;19926;-67
2022/02/17 07:38:21;;;;;;;;;;;;;;;;;;5067974;28;19908;-64
2022/02/17 07:40:46;;;;;;;;;;;;;;;;;;5067822;28;19908;-64
2022/02/17 07:43:12;;;;;;;;;;;;;;;;;;5064054;28;19932;-65
2022/02/17 07:45:38;;;;;;;;;;;;;;;;;;5069378;28;19988;-65
2022/02/17 07:48:04;;;;;;;;;;;;;;;;;;5068443;28;19912;-65
2022/02/17 07:50:30;;;;;;;;;;;;;;;;;;5065096;28;19920;-66
2022/02/17 07:52:56;;;;;;;;;;;;;;;;;;5066795;28;20391;-65
2022/02/17 07:55:24;;;;;;;;;;;;;;;;;;5066841;28;20387;-67
2022/02/17 07:57:50;;;;;;;;;;;;;;;;;;5065145;28;19919;-66
2022/02/17 08:00:16;;;;;;;;;;;;;;;;;;5069711;28;19927;-65
2022/02/17 08:02:42;;;;;;;;;;;;;;;;;;5065899;28;20351;-68
2022/02/17 08:05:08;;;;;;;;;;;;;;;;;;5071321;28;19915;-66
2022/02/17 08:07:35;;;;;;;;;;;;;;;;;;5063398;28;19908;-66
2022/02/17 08:10:01;;;;;;;;;;;;;;;;;;5066811;28;19909;-68
2022/02/17 08:12:27;;;;;;;;;;;;;;;;;;5065399;28;19925;-68
2022/02/17 08:14:53;;;;;;;;;;;;;;;;;;5065577;28;19955;-68
2022/02/17 08:17:19;;;;;;;;;;;;;;;;;;5073555;28;20263;-67
2022/02/17 08:19:45;;;;;;;;;;;;;;;;;;5070638;28;19912;-66
2022/02/17 08:22:11;;;;;;;;;;;;;;;;;;5063465;28;20705;-67
2022/02/17 08:24:37;;;;;;;;;;;;;;;;;;5067098;28;19912;-66
2022/02/17 08:27:03;;;;;;;;;;;;;;;;;;5076941;28;19987;-67
2022/02/17 08:29:31;;;;;;;;;;;;;;;;;;5071538;28;19915;-68
2022/02/17 08:31:57;;;;;;;;;;;;;;;;;;5072667;28;19969;-68
2022/02/17 08:34:23;;;;;;;;;;;;;;;;;;5070603;28;19907;-68
2022/02/17 08:36:51;;;;;;;;;;;;;;;;;;5069009;28;20324;-68
2022/02/17 08:39:17;;;;;;;;;;;;;;;;;;5071115;28;19940;-68
2022/02/17 08:41:43;;;;;;;;;;;;;;;;;;5072232;28;19959;-68
2022/02/17 08:44:09;;;;;;;;;;;;;;;;;;5070658;28;19912;-67
2022/02/17 08:46:35;;;;;;;;;;;;;;;;;;5071193;28;19916;-67
2022/02/17 08:49:00;;;;;;;;;;;;;;;;;;5070317;28;20006;-68
2022/02/17 08:51:29;;;;;;;;;;;;;;;;;;5068227;28;20008;-66
2022/02/17 08:53:55;;;;;;;;;;;;;;;;;;5075176;28;20326;-67
2022/02/17 08:56:21;;;;;;;;;;;;;;;;;;5073973;28;19916;-67
2022/02/17 08:58:47;;;;;;;;;;;;;;;;;;5075797;28;19908;-65
2022/02/17 09:01:13;;;;;;;;;;;;;;;;;;5074726;28;19958;-66
2022/02/17 09:03:39;;;;;;;;;;;;;;;;;;5070678;28;19924;-66
2022/02/17 09:06:05;;;;;;;;;;;;;;;;;;5076835;28;19911;-64
2022/02/17 09:08:31;;;;;;;;;;;;;;;;;;5074548;28;19931;-66
2022/02/17 09:10:57;;;;;;;;;;;;;;;;;;5074299;28;20367;-66
2022/02/17 09:13:23;;;;;;;;;;;;;;;;;;5074301;28;19939;-66
2022/02/17 09:15:49;;;;;;;;;;;;;;;;;;5071933;28;19909;-65
2022/02/17 09:18:15;;;;;;;;;;;;;;;;;;5074824;28;19938;-65
2022/02/17 09:20:40;;;;;;;;;;;;;;;;;;5073419;28;19998;-67
2022/02/17 09:23:06;;;;;;;;;;;;;;;;;;5074520;28;19954;-65
2022/02/17 09:25:32;;;;;;;;;;;;;;;;;;5074083;28;19908;-66
2022/02/17 09:27:58;;;;;;;;;;;;;;;;;;5071620;28;19915;-65
2022/02/17 09:30:24;;;;;;;;;;;;;;;;;;5071705;28;23040;-65
2022/02/17 09:32:50;;;;;;;;;;;;;;;;;;5087097;28;20041;-66
2022/02/17 09:35:16;;;;;;;;;;;;;;;;;;5073533;28;20007;-66
2022/02/17 09:37:42;;;;;;;;;;;;;;;;;;5073680;28;20339;-67
2022/02/17 09:40:08;;;;;;;;;;;;;;;;;;5073882;28;19912;-66
2022/02/17 09:42:38;;;;;;;;;;;;;;;;;;5069070;28;19923;-66
2022/02/17 09:45:04;;;;;;;;;;;;;;;;;;5076368;28;19905;-66
2022/02/17 09:47:30;;;;;;;;;;;;;;;;;;5075492;28;19908;-66
2022/02/17 09:49:55;;;;;;;;;;;;;;;;;;5073301;28;19951;-66
2022/02/17 09:52:21;;;;;;;;;;;;;;;;;;5072733;28;19961;-66
2022/02/17 09:54:48;;;;;;;;;;;;;;;;;;5070909;28;19912;-66
2022/02/17 09:57:14;;;;;;;;;;;;;;;;;;5073733;28;20395;-67
2022/02/17 09:59:41;;;;;;;;;;;;;;;;;;5074574;28;20007;-66
2022/02/17 10:02:09;;;;;;;;;;;;;;;;;;5072168;28;19963;-66
2022/02/17 10:04:35;;;;;;;;;;;;;;;;;;5071686;28;19909;-66
2022/02/17 10:07:01;;;;;;;;;;;;;;;;;;5071200;28;20013;-66
2022/02/17 10:09:27;;;;;;;;;;;;;;;;;;5070083;28;20357;-67
2022/02/17 10:11:53;;;;;;;;;;;;;;;;;;5075500;28;19912;-66
2022/02/17 10:14:19;;;;;;;;;;;;;;;;;;5072812;28;19908;-67
2022/02/17 10:16:45;;;;;;;;;;;;;;;;;;5072973;28;19908;-66
2022/02/17 10:19:11;;;;;;;;;;;;;;;;;;5072777;28;19919;-66
2022/02/17 10:21:37;;;;;;;;;;;;;;;;;;5068593;28;19915;-66
2022/02/17 10:24:03;;;;;;;;;;;;;;;;;;5075475;28;19905;-66
2022/02/17 10:26:30;;;;;;;;;;;;;;;;;;5072880;28;20270;-66
2022/02/17 10:28:57;;;;;;;;;;;;;;;;;;5069775;28;19993;-66
2022/02/17 10:31:23;;;;;;;;;;;;;;;;;;5071378;28;20151;-65
2022/02/17 10:33:54;;;;;;;;;;;;;;;;;;5070165;28;19908;-65
2022/02/17 10:36:20;;;;;;;;;;;;;;;;;;5071127;28;19950;-66
2022/02/17 10:38:46;;;;;;;;;;;;;;;;;;5074258;28;19994;-66
2022/02/17 10:41:12;;;;;;;;;;;;;;;;;;5072746;28;19916;-65
2022/02/17 10:43:38;;;;;;;;;;;;;;;;;;5072151;28;20240;-65
2022/02/17 10:46:04;;;;;;;;;;;;;;;;;;5071787;28;19908;-65
2022/02/17 10:48:30;;;;;;;;;;;;;;;;;;5068869;28;19958;-66
2022/02/17 10:50:56;;;;;;;;;;;;;;;;;;5074780;28;19912;-65
2022/02/17 10:53:22;;;;;;;;;;;;;;;;;;5072157;28;19908;-65
2022/02/17 10:55:48;;;;;;;;;;;;;;;;;;5071943;28;19934;-66
2022/02/17 10:58:14;;;;;;;;;;;;;;;;;;5073075;28;19908;-62
2022/02/17 11:00:41;;;;;;;;;;;;;;;;;;5068416;28;20346;-62
2022/02/17 11:03:07;;;;;;;;;;;;;;;;;;5070390;28;20011;-63
2022/02/17 11:05:33;;;;;;;;;;;;;;;;;;5068843;28;20152;-63
2022/02/17 11:07:59;;;;;;;;;;;;;;;;;;5068014;28;19910;-63
2022/02/17 11:10:26;;;;;;;;;;;;;;;;;;5068372;28;19955;-62
2022/02/17 11:12:51;;;;;;;;;;;;;;;;;;5065543;28;19915;-63
2022/02/17 11:15:17;;;;;;;;;;;;;;;;;;5069521;28;19912;-62
2022/02/17 11:17:43;;;;;;;;;;;;;;;;;;5068951;28;19987;-62
2022/02/17 11:20:11;;;;;;;;;;;;;;;;;;5068046;28;19947;-66
2022/02/17 11:22:37;;;;;;;;;;;;;;;;;;5068466;28;19915;-63
2022/02/17 11:25:03;;;;;;;;;;;;;;;;;;5065882;28;19904;-64
2022/02/17 11:27:29;;;;;;;;;;;;;;;;;;5070980;28;19916;-65
2022/02/17 11:29:55;;;;;;;;;;;;;;;;;;5070613;28;19916;-66
2022/02/17 11:32:23;;;;;;;;;;;;;;;;;;5068300;28;20382;-64
2022/02/17 11:34:49;;;;;;;;;;;;;;;;;;5067651;28;19915;-63
2022/02/17 11:37:14;;;;;;;;;;;;;;;;;;5066779;28;19905;-64
2022/02/17 11:39:40;;;;;;;;;;;;;;;;;;5070062;28;19919;-65
2022/02/17 11:42:06;;;;;;;;;;;;;;;;;;5067904;28;20391;-65
2022/02/17 11:44:33;;;;;;;;;;;;;;;;;;5067735;28;19954;-63
2022/02/17 11:47:05;;;;;;;;;;;;;;;;;;5067765;28;20379;-63
2022/02/17 11:49:31;;;;;;;;;;;;;;;;;;5067231;28;19994;-63
2022/02/17 11:51:56;;;;;;;;;;;;;;;;;;5067532;28;20019;-62
2022/02/17 11:54:22;;;;;;;;;;;;;;;;;;5067422;28;19911;-63
2022/02/17 11:56:48;;;;;;;;;;;;;;;;;;5069326;28;20351;-62
2022/02/17 11:59:14;;;;;;;;;;;;;;;;;;5067234;28;20003;-63
2022/02/17 12:01:40;;;;;;;;;;;;;;;;;;5066362;28;20289;-64
2022/02/17 12:04:09;;;;;;;;;;;;;;;;;;5066722;28;19962;-65
2022/02/17 12:06:43;;;;;;;;;;;;;;;;;;5063975;28;19944;-64
2022/02/17 12:09:09;;;;;;;;;;;;;;;;;;5068122;28;20339;-64
2022/02/17 12:11:36;;;;;;;;;;;;;;;;;;5066389;28;19995;-67
2022/02/17 12:14:04;;;;;;;;;;;;;;;;;;5065848;28;19915;-66
2022/02/17 12:16:30;;;;;;;;;;;;;;;;;;5065165;28;19971;-66
2022/02/17 12:18:56;;;;;;;;;;;;;;;;;;5073500;28;19936;-68
2022/02/17 12:21:22;;;;;;;;;;;;;;;;;;5066310;28;19908;-66
2022/02/17 12:23:48;;;;;;;;;;;;;;;;;;5066483;28;20002;-67
2022/02/17 12:26:39;;;;;;;;;;;;;;;;;;5064849;28;20000;-67
2022/02/17 12:29:00;;;;;;;;;;;;;;;;;;5065619;28;19912;-67
2022/02/17 12:31:26;;;;;;;;;;;;;;;;;;5069966;28;20007;-67
2022/02/17 12:33:52;;;;;;;;;;;;;;;;;;5070361;28;20377;-67
2022/02/17 12:36:18;;;;;;;;;;;;;;;;;;5071329;28;19905;-67
2022/02/17 12:38:44;;;;;;;;;;;;;;;;;;5070806;28;19912;-67
2022/02/17 12:41:11;;;;;;;;;;;;;;;;;;5070252;28;20371;-68
2022/02/17 12:43:38;;;;;;;;;;;;;;;;;;5070028;28;19916;-67
2022/02/17 12:46:04;;;;;;;;;;;;;;;;;;5068734;28;19991;-67
2022/02/17 12:48:30;;;;;;;;;;;;;;;;;;5069606;28;20003;-67
2022/02/17 12:50:56;;;;;;;;;;;;;;;;;;5071060;28;19969;-66
2022/02/17 12:53:22;;;;;;;;;;;;;;;;;;5068679;28;19904;-68
2022/02/17 12:55:48;;;;;;;;;;;;;;;;;;5068306;28;20244;-67
2022/02/17 12:58:14;;;;;;;;;;;;;;;;;;5072865;28;20282;-67
2022/02/17 13:00:40;;;;;;;;;;;;;;;;;;5068925;28;19919;-67
2022/02/17 13:03:06;;;;;;;;;;;;;;;;;;5037759;28;1091607;-67
2022/02/17 13:06:17;;;;;;;;;;;;;;;;;;5074212;28;19922;-67
2022/02/17 13:08:18;;;;;;;;;;;;;;;;;;5073320;28;20003;-67
2022/02/17 13:10:44;;;;;;;;;;;;;;;;;;5073114;28;19912;-66
2022/02/17 13:13:10;;;;;;;;;;;;;;;;;;5073373;28;19908;-67
2022/02/17 13:15:36;;;;;;;;;;;;;;;;;;5069631;28;20210;-66
2022/02/17 13:18:03;;;;;;;;;;;;;;;;;;5077120;28;19904;-66
2022/02/17 13:20:29;;;;;;;;;;;;;;;;;;5073925;28;20344;-66
2022/02/17 13:22:57;;;;;;;;;;;;;;;;;;5073831;28;19996;-66
2022/02/17 13:25:23;;;;;;;;;;;;;;;;;;5074052;28;19931;-66
2022/02/17 13:27:51;;;;;;;;;;;;;;;;;;5068080;28;20301;-66
2022/02/17 13:30:18;;;;;;;;;;;;;;;;;;5073933;28;20383;-67
2022/02/17 13:32:44;;;;;;;;;;;;;;;;;;5074780;28;19931;-67
2022/02/17 13:35:11;;;;;;;;;;;;;;;;;;5073979;28;19919;-66
2022/02/17 13:37:37;;;;;;;;;;;;;;;;;;5073140;28;19918;-66
2022/02/17 13:40:03;;;;;;;;;;;;;;;;;;5073043;28;19904;-67
2022/02/17 13:42:29;;;;;;;;;;;;;;;;;;5071023;28;19908;-67
2022/02/17 13:44:54;;;;;;;;;;;;;;;;;;5076563;28;20007;-66
2022/02/17 13:47:21;;;;;;;;;;;;;;;;;;5073228;28;19913;-66
2022/02/17 13:49:47;;;;;;;;;;;;;;;;;;5073577;28;19909;-67
2022/02/17 13:52:13;;;;;;;;;;;;;;;;;;5073773;28;19965;-67
2022/02/17 13:54:39;;;;;;;;;;;;;;;;;;5069898;28;19912;-67
2022/02/17 13:57:04;;;;;;;;;;;;;;;;;;5076567;28;20413;-66
2022/02/17 13:59:30;;;;;;;;;;;;;;;;;;5074731;28;19948;-66
2022/02/17 14:01:56;;;;;;;;;;;;;;;;;;5073133;28;19916;-66
2022/02/17 14:04:22;;;;;;;;;;;;;;;;;;5073153;28;19912;-67
2022/02/17 14:06:48;;;;;;;;;;;;;;;;;;5070862;28;19916;-67
2022/02/17 14:09:14;;;;;;;;;;;;;;;;;;5073791;28;20015;-66
2022/02/17 14:11:40;;;;;;;;;;;;;;;;;;5069107;28;19912;-66
2022/02/17 14:14:07;;;;;;;;;;;;;;;;;;5065922;28;19908;-66
2022/02/17 14:16:33;;;;;;;;;;;;;;;;;;5066035;28;20317;-66
2022/02/17 14:18:59;;;;;;;;;;;;;;;;;;5069588;28;19908;-66
2022/02/17 14:21:25;;;;;;;;;;;;;;;;;;5066544;28;19951;-66
2022/02/17 14:23:51;;;;;;;;;;;;;;;;;;5067260;28;19915;-66
2022/02/17 14:26:18;;;;;;;;;;;;;;;;;;5065887;28;20005;-66
2022/02/17 14:28:44;;;;;;;;;;;;;;;;;;5065260;28;19909;-66
2022/02/17 14:31:09;;;;;;;;;;;;;;;;;;5072984;28;20294;-66
2022/02/17 14:33:35;;;;;;;;;;;;;;;;;;5068384;28;19909;-66
2022/02/17 14:36:01;;;;;;;;;;;;;;;;;;5076635;28;20377;-66
2022/02/17 14:38:27;;;;;;;;;;;;;;;;;;5072462;28;19912;-66
2022/02/17 14:40:53;;;;;;;;;;;;;;;;;;5072570;28;19959;-65
2022/02/17 14:43:24;;;;;;;;;;;;;;;;;;5072723;28;19912;-66
2022/02/17 14:45:50;;;;;;;;;;;;;;;;;;5070334;28;19912;-66
2022/02/17 14:48:17;;;;;;;;;;;;;;;;;;5072777;28;19905;-66
2022/02/17 14:50:43;;;;;;;;;;;;;;;;;;5073249;28;19904;-66
2022/02/17 14:53:09;;;;;;;;;;;;;;;;;;5071830;28;20443;-67
2022/02/17 14:55:35;;;;;;;;;;;;;;;;;;5072292;28;19908;-66
2022/02/17 14:58:01;;;;;;;;;;;;;;;;;;5071223;28;19919;-66
2022/02/17 15:00:26;;;;;;;;;;;;;;;;;;5069830;28;19908;-65
2022/02/17 15:02:53;;;;;;;;;;;;;;;;;;5074457;28;20379;-66
2022/02/17 15:05:19;;;;;;;;;;;;;;;;;;5072434;28;19961;-66
2022/02/17 15:07:45;;;;;;;;;;;;;;;;;;5072146;28;19908;-66
2022/02/17 15:10:11;;;;;;;;;;;;;;;;;;5072028;28;19916;-66
2022/02/17 15:12:37;;;;;;;;;;;;;;;;;;5067404;28;19915;-66
2022/02/17 15:15:03;;;;;;;;;;;;;;;;;;5075658;28;19904;-66
2022/02/17 15:17:29;;;;;;;;;;;;;;;;;;5072210;28;19961;-66
2022/02/17 15:20:13;;;;;;;;;;;;;;;;;;5071925;28;19994;-66
2022/02/17 15:22:39;;;;;;;;;;;;;;;;;;5071355;28;19916;-66
2022/02/17 15:25:05;;;;;;;;;;;;;;;;;;5070765;28;20362;-66
2022/02/17 15:27:31;;;;;;;;;;;;;;;;;;5065042;28;19931;-66
2022/02/17 15:29:57;;;;;;;;;;;;;;;;;;5074538;28;19905;-67
2022/02/17 15:32:23;;;;;;;;;;;;;;;;;;5071193;28;19908;-67
2022/02/17 15:34:49;;;;;;;;;;;;;;;;;;5066969;28;19963;-69
2022/02/17 15:37:14;;;;;;;;;;;;;;;;;;5069675;28;20238;-69
2022/02/17 15:39:40;;;;;;;;;;;;;;;;;;5064225;28;19928;-69
2022/02/17 15:42:06;;;;;;;;;;;;;;;;;;5073844;28;20315;-69
2022/02/17 15:44:32;;;;;;;;;;;;;;;;;;5072118;28;20271;-68
2022/02/17 15:46:58;;;;;;;;;;;;;;;;;;5069740;28;19959;-71
2022/02/17 15:49:24;;;;;;;;;;;;;;;;;;5066135;28;20390;-70
2022/02/17 15:51:50;;;;;;;;;;;;;;;;;;5066273;28;20515;-69
2022/02/17 15:54:16;;;;;;;;;;;;;;;;;;5068993;28;19904;-68
2022/02/17 15:56:41;;;;;;;;;;;;;;;;;;5067720;28;20362;-70
2022/02/17 15:59:07;;;;;;;;;;;;;;;;;;5066233;28;20003;-72
2022/02/17 16:01:34;;;;;;;;;;;;;;;;;;5066065;28;19916;-70
2022/02/17 16:04:01;;;;;;;;;;;;;;;;;;5066150;28;19924;-72
2022/02/17 16:06:27;;;;;;;;;;;;;;;;;;5067309;28;19919;-72
2022/02/17 16:08:53;;;;;;;;;;;;;;;;;;5067773;28;19908;-70
2022/02/17 16:11:19;;;;;;;;;;;;;;;;;;5065846;28;20282;-70
2022/02/17 16:13:45;;;;;;;;;;;;;;;;;;5065732;28;19912;-67
2022/02/17 16:16:10;;;;;;;;;;;;;;;;;;5066281;28;20023;-65
2022/02/17 16:18:43;;;;;;;;;;;;;;;;;;5065753;28;19909;-66
2022/02/17 16:21:09;;;;;;;;;;;;;;;;;;5067911;28;20355;-66
2022/02/17 16:23:35;;;;;;;;;;;;;;;;;;5066311;28;19957;-71
2022/02/17 16:26:01;;;;;;;;;;;;;;;;;;5065708;28;19962;-63
2022/02/17 16:28:26;;;;;;;;;;;;;;;;;;5080734;28;19915;-64
2022/02/17 16:30:52;;;;;;;;;;;;;;;;;;5065524;28;19928;-64
2022/02/17 16:33:18;;;;;;;;;;;;;;;;;;5067020;28;20304;-65
2022/02/17 16:35:44;;;;;;;;;;;;;;;;;;5066542;28;19945;-67
2022/02/17 16:38:10;;;;;;;;;;;;;;;;;;5065040;28;20336;-63